Airfield :
LOGIN :

Register | Disclaimer

   EN    FR    IT 

 










Legend :    VFR   Marginal VFR   IFR   Intensive IFR   Very Intensive IFR
Visi :
Ceiling :
>= 8 km
>= 3000ft
5 to 8 km
1000 to 3000 ft
1500m to 5 km
500 to 1000 ft
800 to 1500m
200 to 500 ft
< 800m
< 200 ft
Symbols :   Thunderstorms  Fog  Heavy snow  Heavy precipitations  Wind > 20 kt
SIGMETs :     Misc.  Thunderstorms  Icing  Turbulence  Mountain Waves  Volcanic Ashes







- Airport Elevation : 124 ft
- IATA code : RNS
- Download approach charts


LFRN - Rennes

CURRENT METAR :
  • 150800Z AUTO 31004KT CAVOK 17/15 Q1025 NOSIG

EXPIRED METARs :
  • 150730Z AUTO 30006KT CAVOK 15/15 Q1025 NOSIG
  • 150700Z AUTO 29004KT 5000 BR NSC 14/14 Q1025 NOSIG
  • 150630Z AUTO 26003KT 3300 BR NSC 13/12 Q1025 BECMG 9999 NSW
  • 150600Z AUTO 28003KT 1400 0800 R28/1900D R10/1500D BCFG NSC 12/12 Q1025 BECMG 9999 NSW
  • 150530Z AUTO 29004KT 2500 R10/1000U BCFG NSC 12/12 Q1025 BECMG 9999 NSW
  • 150500Z AUTO 28004KT 3500 0700 R28/P2000 R10/1300D BCFG NSC 13/12 Q1025 TEMPO 0500 FG VV///

TAF AMD TAF LFRN
Valid from the 15 at 06:00 until the 16 at 06:00 UTC


150607Z 1506/1606 34005KT 1500 BCFG NSC
BECMG 1506/1508 CAVOK
BECMG 1600/1602 3000 BR
PROB30
TEMPO 1602/1606 0500 FG VV///
ATIS : +33 2 99 67 72 50
No reported NOTAMs for that airfield.



MET'MAP, your aeronautical weather chart ! - Copyright ORBIFLY December 2007 - Disclaimer

ORBIFLY MET'MAP TEAM :

Programming & Development : Alexandra Zaïnal
Concept & Development : Baudouin d'Aumeries
Co-Development & Prog : Marc-Olivier Méhu
Technical & hardware support : Manuel Goepfert

Contact : metmap@orbifly.com




SOURCES & CREDITS :

   NOAA